Time;durP1;ratioP1;P1;durP2;ratioP2;P2;SDS_P1;SDS_P2;PMS_P1;PMS_P2;Temp;Humidity;BMP_temperature;BMP_pressure;BME280_temperature;BME280_humidity;BME280_pressure;Samples;Min_cycle;Max_cycle;Signal;HPM_P1;HPM_P2
2023/12/29 00:00:21;;;;;;;19.07;3.97;;;;;;;;;;6307468;22;20174;-86
2023/12/29 00:02:49;;;;;;;12.23;3.43;;;;;;;;;;6307583;22;20165;-86
2023/12/29 00:05:16;;;;;;;15.00;3.83;;;;;;;;;;6306923;22;20189;-86
2023/12/29 00:07:44;;;;;;;23.37;3.50;;;;;;;;;;6307337;22;20238;-87
2023/12/29 00:10:12;;;;;;;17.47;3.03;;;;;;;;;;6307694;22;20166;-87
2023/12/29 00:12:40;;;;;;;21.20;3.37;;;;;;;;;;6306442;22;20241;-86
2023/12/29 00:15:08;;;;;;;21.50;3.00;;;;;;;;;;6307786;22;20166;-86
2023/12/29 00:17:37;;;;;;;17.97;3.00;;;;;;;;;;6306954;22;20205;-85
2023/12/29 00:20:08;;;;;;;16.37;2.90;;;;;;;;;;6307110;22;20197;-87
2023/12/29 00:22:35;;;;;;;19.10;2.50;;;;;;;;;;6307645;22;20168;-87
2023/12/29 00:25:05;;;;;;;18.67;2.93;;;;;;;;;;6308139;22;20165;-86
2023/12/29 00:27:32;;;;;;;20.90;2.83;;;;;;;;;;6306827;22;20194;-86
2023/12/29 00:30:01;;;;;;;21.00;3.03;;;;;;;;;;6307104;22;20166;-87
2023/12/29 00:32:28;;;;;;;22.50;2.97;;;;;;;;;;6306897;22;20166;-86
2023/12/29 00:35:03;;;;;;;18.23;3.50;;;;;;;;;;6306564;22;20166;-86
2023/12/29 00:37:36;;;;;;;16.00;3.30;;;;;;;;;;6307146;22;20161;-86
2023/12/29 00:40:05;;;;;;;19.00;3.10;;;;;;;;;;6307449;22;20223;-86
2023/12/29 00:42:32;;;;;;;17.30;2.57;;;;;;;;;;6306584;22;20240;-85
2023/12/29 00:45:01;;;;;;;17.80;3.00;;;;;;;;;;6306978;22;20620;-86
2023/12/29 00:47:28;;;;;;;14.87;2.90;;;;;;;;;;6306883;22;20190;-87
2023/12/29 00:49:55;;;;;;;21.07;2.83;;;;;;;;;;6307524;22;20170;-86
2023/12/29 00:52:22;;;;;;;13.60;2.73;;;;;;;;;;6306997;22;20651;-86
2023/12/29 00:54:50;;;;;;;16.13;2.60;;;;;;;;;;6306558;22;21238;-84
2023/12/29 00:57:19;;;;;;;14.40;3.00;;;;;;;;;;6306583;22;20166;-87
2023/12/29 00:59:54;;;;;;;16.10;2.93;;;;;;;;;;6306776;22;20237;-87
2023/12/29 01:02:25;;;;;;;19.63;2.73;;;;;;;;;;6307659;22;20172;-85
2023/12/29 01:04:56;;;;;;;16.23;3.13;;;;;;;;;;6307688;22;20166;-87
2023/12/29 01:07:23;;;;;;;15.20;2.87;;;;;;;;;;6306475;22;20197;-87
2023/12/29 01:09:57;;;;;;;23.67;3.27;;;;;;;;;;6307307;22;20189;-86
2023/12/29 01:12:25;;;;;;;20.87;3.40;;;;;;;;;;6306550;22;20165;-86
2023/12/29 01:14:52;;;;;;;23.03;3.20;;;;;;;;;;6306812;22;20166;-86
2023/12/29 01:17:22;;;;;;;16.80;2.73;;;;;;;;;;6306575;22;20216;-86
2023/12/29 01:19:50;;;;;;;22.10;3.37;;;;;;;;;;6306841;22;20216;-86
2023/12/29 01:22:17;;;;;;;18.87;2.97;;;;;;;;;;6306918;22;20197;-86
2023/12/29 01:24:45;;;;;;;22.73;3.27;;;;;;;;;;6307479;22;20166;-86
2023/12/29 01:27:12;;;;;;;20.70;3.33;;;;;;;;;;6306357;22;20166;-88
2023/12/29 01:29:39;;;;;;;20.13;2.63;;;;;;;;;;6307000;22;20683;-85
2023/12/29 01:32:08;;;;;;;23.37;3.40;;;;;;;;;;6306816;22;20188;-86
2023/12/29 01:34:35;;;;;;;21.30;3.20;;;;;;;;;;6306448;22;20177;-87
2023/12/29 01:37:04;;;;;;;20.33;2.60;;;;;;;;;;6306333;22;20193;-88
2023/12/29 01:39:35;;;;;;;27.43;3.60;;;;;;;;;;6293959;22;20197;-86
2023/12/29 01:42:02;;;;;;;21.13;3.37;;;;;;;;;;6307024;22;20249;-86
2023/12/29 01:44:30;;;;;;;21.27;3.63;;;;;;;;;;6306934;22;20632;-86
2023/12/29 01:47:00;;;;;;;26.63;3.50;;;;;;;;;;6306919;22;20165;-87
2023/12/29 01:49:31;;;;;;;20.37;3.47;;;;;;;;;;6306197;22;20189;-86
2023/12/29 01:51:59;;;;;;;20.23;2.93;;;;;;;;;;6306762;22;20165;-86
2023/12/29 01:54:31;;;;;;;16.83;2.87;;;;;;;;;;6305267;22;20166;-86
2023/12/29 01:57:02;;;;;;;18.73;2.93;;;;;;;;;;6306797;22;20170;-85
2023/12/29 01:59:34;;;;;;;13.17;2.40;;;;;;;;;;6306754;22;20200;-86
2023/12/29 02:02:11;;;;;;;25.67;3.63;;;;;;;;;;6306136;22;20166;-86
2023/12/29 02:04:38;;;;;;;21.00;2.80;;;;;;;;;;6306244;22;20185;-87
2023/12/29 02:07:06;;;;;;;18.93;3.23;;;;;;;;;;6305802;22;20194;-86
2023/12/29 02:09:38;;;;;;;18.93;2.53;;;;;;;;;;6306335;22;20197;-86
2023/12/29 02:12:06;;;;;;;24.10;3.57;;;;;;;;;;6306715;22;20166;-86
2023/12/29 02:14:33;;;;;;;21.80;2.87;;;;;;;;;;6306327;22;20229;-86
2023/12/29 02:17:07;;;;;;;21.80;3.33;;;;;;;;;;6306231;22;20173;-86
2023/12/29 02:19:41;;;;;;;16.43;3.00;;;;;;;;;;6306489;22;20227;-86
2023/12/29 02:22:10;;;;;;;26.33;3.23;;;;;;;;;;6306160;22;20168;-86
2023/12/29 02:24:38;;;;;;;22.73;3.57;;;;;;;;;;6305426;22;20169;-86
2023/12/29 02:27:14;;;;;;;20.93;2.70;;;;;;;;;;6306540;22;20173;-87
2023/12/29 02:29:44;;;;;;;20.23;2.70;;;;;;;;;;6306378;22;20232;-88
2023/12/29 02:32:12;;;;;;;22.93;3.10;;;;;;;;;;6306450;22;20166;-86
2023/12/29 02:34:40;;;;;;;27.37;3.03;;;;;;;;;;6306022;22;20200;-86
2023/12/29 02:37:08;;;;;;;23.50;3.30;;;;;;;;;;6306026;22;20192;-86
2023/12/29 02:39:36;;;;;;;22.63;2.73;;;;;;;;;;6306266;22;20166;-86
2023/12/29 02:42:03;;;;;;;18.10;2.60;;;;;;;;;;6305706;22;20166;-86
2023/12/29 02:44:32;;;;;;;22.63;2.23;;;;;;;;;;6305548;22;20166;-85
2023/12/29 02:46:59;;;;;;;21.83;2.80;;;;;;;;;;6304789;22;20166;-86
2023/12/29 02:49:28;;;;;;;16.83;2.17;;;;;;;;;;6306086;22;20196;-87
2023/12/29 02:52:02;;;;;;;26.20;3.30;;;;;;;;;;6305922;22;20216;-87
2023/12/29 02:54:34;;;;;;;22.97;2.87;;;;;;;;;;6305816;22;20167;-87
2023/12/29 02:57:01;;;;;;;20.87;2.93;;;;;;;;;;6306538;22;20185;-86
2023/12/29 02:59:28;;;;;;;18.80;2.90;;;;;;;;;;6305409;22;20220;-86
2023/12/29 03:01:57;;;;;;;13.27;2.43;;;;;;;;;;6306569;22;20166;-86
2023/12/29 03:04:24;;;;;;;16.77;3.57;;;;;;;;;;6305835;22;20177;-86
2023/12/29 03:06:53;;;;;;;16.17;2.67;;;;;;;;;;6305316;22;20166;-86
2023/12/29 03:09:20;;;;;;;18.67;2.60;;;;;;;;;;6305353;22;20197;-86
2023/12/29 03:11:47;;;;;;;18.83;3.33;;;;;;;;;;6305410;22;20170;-86
2023/12/29 03:14:16;;;;;;;15.80;2.10;;;;;;;;;;6306097;22;20176;-87
2023/12/29 03:16:43;;;;;;;23.43;2.73;;;;;;;;;;6305950;22;20169;-86
2023/12/29 03:19:13;;;;;;;24.50;3.83;;;;;;;;;;6305455;22;20828;-86
2023/12/29 03:21:40;;;;;;;18.77;2.40;;;;;;;;;;6305681;22;20166;-85
2023/12/29 03:24:07;;;;;;;17.00;2.20;;;;;;;;;;6306892;22;20177;-87
2023/12/29 03:26:35;;;;;;;21.47;3.07;;;;;;;;;;6307653;22;20203;-86
2023/12/29 03:29:02;;;;;;;17.57;2.57;;;;;;;;;;6308035;22;20599;-86
2023/12/29 03:31:29;;;;;;;15.83;2.13;;;;;;;;;;6307483;22;20166;-86
2023/12/29 03:33:56;;;;;;;18.47;2.37;;;;;;;;;;6307752;22;20162;-86
2023/12/29 03:36:25;;;;;;;15.37;2.50;;;;;;;;;;6307421;22;20162;-86
2023/12/29 03:38:52;;;;;;;19.23;2.70;;;;;;;;;;6308183;22;20166;-87
2023/12/29 03:41:20;;;;;;;16.37;2.50;;;;;;;;;;6307609;22;20196;-83
2023/12/29 03:43:47;;;;;;;20.43;2.20;;;;;;;;;;6307739;22;20194;-86
2023/12/29 03:46:18;;;;;;;18.27;2.50;;;;;;;;;;6308041;22;20200;-86
2023/12/29 03:48:45;;;;;;;25.97;2.73;;;;;;;;;;6307003;22;20197;-86
2023/12/29 03:51:12;;;;;;;16.37;2.13;;;;;;;;;;6307167;22;20624;-86
2023/12/29 03:53:41;;;;;;;15.30;2.57;;;;;;;;;;6306386;22;20241;-85
2023/12/29 03:56:09;;;;;;;17.90;2.40;;;;;;;;;;6307111;22;20502;-85
2023/12/29 03:58:36;;;;;;;18.73;2.97;;;;;;;;;;6307497;22;20177;-85
2023/12/29 04:01:03;;;;;;;18.03;2.73;;;;;;;;;;6307517;22;20170;-86
2023/12/29 04:03:31;;;;;;;18.43;2.20;;;;;;;;;;6307667;22;20197;-86
2023/12/29 04:05:58;;;;;;;18.87;2.67;;;;;;;;;;6307057;22;20162;-86
2023/12/29 04:08:25;;;;;;;15.73;2.73;;;;;;;;;;6307240;22;20268;-86
2023/12/29 04:10:54;;;;;;;19.10;2.30;;;;;;;;;;6308193;22;20664;-86
2023/12/29 04:13:21;;;;;;;23.80;2.80;;;;;;;;;;6307144;22;20165;-86
2023/12/29 04:15:48;;;;;;;22.43;2.50;;;;;;;;;;6306942;22;20166;-86
2023/12/29 04:18:15;;;;;;;19.10;2.60;;;;;;;;;;6307269;22;20617;-87
2023/12/29 04:20:43;;;;;;;22.73;2.90;;;;;;;;;;6307117;22;20188;-86
2023/12/29 04:23:11;;;;;;;14.33;2.30;;;;;;;;;;6307419;22;20166;-86
2023/12/29 04:25:38;;;;;;;19.47;3.23;;;;;;;;;;6306930;22;20173;-85
2023/12/29 04:28:08;;;;;;;18.50;2.27;;;;;;;;;;6307678;22;20169;-86
2023/12/29 04:30:35;;;;;;;18.10;2.37;;;;;;;;;;6307426;22;20260;-86
2023/12/29 04:33:02;;;;;;;24.00;2.90;;;;;;;;;;6307008;22;20166;-86
2023/12/29 04:35:30;;;;;;;19.80;2.53;;;;;;;;;;6306005;22;20269;-86
2023/12/29 04:37:57;;;;;;;18.97;3.00;;;;;;;;;;6307375;22;20253;-86
2023/12/29 04:40:24;;;;;;;17.43;2.60;;;;;;;;;;6307041;22;20170;-86
2023/12/29 04:42:51;;;;;;;19.43;3.10;;;;;;;;;;6307031;22;20671;-86
2023/12/29 04:45:20;;;;;;;15.80;2.77;;;;;;;;;;6307796;22;20663;-86
2023/12/29 04:47:48;;;;;;;23.33;2.50;;;;;;;;;;6307230;22;20216;-86
2023/12/29 04:50:15;;;;;;;24.87;3.13;;;;;;;;;;6307032;22;20201;-86
2023/12/29 04:52:42;;;;;;;17.30;2.80;;;;;;;;;;6306599;22;20169;-85
2023/12/29 04:55:09;;;;;;;17.00;2.87;;;;;;;;;;6307102;22;20223;-85
2023/12/29 04:57:37;;;;;;;18.93;2.40;;;;;;;;;;6306916;22;20166;-85
2023/12/29 05:00:04;;;;;;;25.50;2.60;;;;;;;;;;6307141;22;20165;-86
2023/12/29 05:02:33;;;;;;;16.63;2.30;;;;;;;;;;6306519;22;20165;-86
2023/12/29 05:05:00;;;;;;;23.70;2.80;;;;;;;;;;6306779;22;20170;-86
2023/12/29 05:07:28;;;;;;;20.63;2.80;;;;;;;;;;6294995;22;20260;-86
2023/12/29 05:09:55;;;;;;;16.57;2.30;;;;;;;;;;6275842;22;20198;-86
2023/12/29 05:12:23;;;;;;;25.10;3.20;;;;;;;;;;6276191;22;20169;-85
2023/12/29 05:14:50;;;;;;;24.77;2.70;;;;;;;;;;6276098;22;20189;-86
2023/12/29 05:17:17;;;;;;;22.77;3.70;;;;;;;;;;6275487;22;20193;-86
2023/12/29 05:19:46;;;;;;;21.17;2.30;;;;;;;;;;6276053;22;20636;-86
2023/12/29 05:22:17;;;;;;;17.73;3.70;;;;;;;;;;6275925;22;20557;-86
2023/12/29 05:24:45;;;;;;;19.97;2.87;;;;;;;;;;6276243;22;20169;-87
2023/12/29 05:27:12;;;;;;;22.33;2.53;;;;;;;;;;6276601;22;20213;-86
2023/12/29 05:29:39;;;;;;;15.40;3.00;;;;;;;;;;6274834;22;20205;-86
2023/12/29 05:32:08;;;;;;;22.03;2.60;;;;;;;;;;6274865;22;20213;-86
2023/12/29 05:34:35;;;;;;;20.53;2.50;;;;;;;;;;6274963;22;20172;-86
2023/12/29 05:37:04;;;;;;;21.40;2.63;;;;;;;;;;6275010;22;20163;-86
2023/12/29 05:39:31;;;;;;;18.87;3.50;;;;;;;;;;6275630;22;20213;-85
2023/12/29 05:41:58;;;;;;;22.07;3.27;;;;;;;;;;6275814;22;20557;-84
2023/12/29 05:44:26;;;;;;;17.70;3.07;;;;;;;;;;6275397;22;20229;-85
2023/12/29 05:46:54;;;;;;;19.07;3.70;;;;;;;;;;6274582;22;20273;-85
2023/12/29 05:49:25;;;;;;;19.57;3.30;;;;;;;;;;6275305;22;20201;-85
2023/12/29 05:51:53;;;;;;;18.30;3.47;;;;;;;;;;6274872;22;20205;-86
2023/12/29 05:54:21;;;;;;;19.20;2.90;;;;;;;;;;6275413;22;20170;-85
2023/12/29 05:56:49;;;;;;;22.40;2.80;;;;;;;;;;6275590;22;20166;-85
2023/12/29 05:59:16;;;;;;;21.33;2.50;;;;;;;;;;6275363;22;20222;-86
2023/12/29 06:01:43;;;;;;;23.77;2.87;;;;;;;;;;6275283;22;20166;-85
2023/12/29 06:04:10;;;;;;;17.90;3.13;;;;;;;;;;6275600;22;20229;-86
2023/12/29 06:06:38;;;;;;;21.23;2.70;;;;;;;;;;6276307;22;20166;-86
2023/12/29 06:09:05;;;;;;;15.57;2.60;;;;;;;;;;6305987;22;20551;-85
2023/12/29 06:11:41;;;;;;;28.27;2.90;;;;;;;;;;6305965;22;20197;-86
2023/12/29 06:14:10;;;;;;;20.00;2.70;;;;;;;;;;6306061;22;20185;-87
2023/12/29 06:16:37;;;;;;;17.40;2.53;;;;;;;;;;6304979;22;20640;-86
2023/12/29 06:19:04;;;;;;;14.27;2.10;;;;;;;;;;6306176;22;20177;-86
2023/12/29 06:21:32;;;;;;;18.03;2.20;;;;;;;;;;6306676;22;20474;-86
2023/12/29 06:23:59;;;;;;;18.60;2.67;;;;;;;;;;6306348;22;20173;-85
2023/12/29 06:26:26;;;;;;;17.63;2.20;;;;;;;;;;6305600;22;20170;-86
2023/12/29 06:28:55;;;;;;;17.43;2.13;;;;;;;;;;6306051;22;20168;-85
2023/12/29 06:31:22;;;;;;;16.40;2.10;;;;;;;;;;6305737;22;20173;-87
2023/12/29 06:33:50;;;;;;;19.47;2.13;;;;;;;;;;6306766;22;20166;-86
2023/12/29 06:36:17;;;;;;;17.13;2.40;;;;;;;;;;6306320;22;20496;-86
2023/12/29 06:38:48;;;;;;;20.17;2.50;;;;;;;;;;6306385;22;20162;-85
2023/12/29 06:41:15;;;;;;;12.33;2.10;;;;;;;;;;6306066;22;20651;-86
2023/12/29 06:43:43;;;;;;;20.13;2.60;;;;;;;;;;6306457;22;20224;-85
2023/12/29 06:46:13;;;;;;;23.67;2.67;;;;;;;;;;6306423;22;20158;-86
2023/12/29 06:48:41;;;;;;;15.23;2.53;;;;;;;;;;6305559;22;20236;-87
2023/12/29 06:51:09;;;;;;;15.50;2.47;;;;;;;;;;6305580;22;20662;-86
2023/12/29 06:53:37;;;;;;;15.17;2.20;;;;;;;;;;6305560;22;20606;-85
2023/12/29 06:56:04;;;;;;;17.83;2.70;;;;;;;;;;6306096;22;20162;-86
2023/12/29 06:58:32;;;;;;;20.43;2.40;;;;;;;;;;6292958;22;20162;-88
2023/12/29 07:00:59;;;;;;;14.43;2.27;;;;;;;;;;6305881;22;20173;-86
2023/12/29 07:03:28;;;;;;;18.73;2.80;;;;;;;;;;6305817;22;20648;-86
2023/12/29 07:05:56;;;;;;;20.93;3.60;;;;;;;;;;6305889;22;20224;-86
2023/12/29 07:08:23;;;;;;;14.97;2.70;;;;;;;;;;6305269;22;20194;-86
2023/12/29 07:10:50;;;;;;;21.20;2.90;;;;;;;;;;6305972;22;20671;-84
2023/12/29 07:13:17;;;;;;;20.83;3.13;;;;;;;;;;6305739;22;20172;-87
2023/12/29 07:15:45;;;;;;;17.80;2.93;;;;;;;;;;6306466;22;20169;-87
2023/12/29 07:18:12;;;;;;;24.37;2.90;;;;;;;;;;6305843;22;20229;-86
2023/12/29 07:20:41;;;;;;;17.50;2.10;;;;;;;;;;6306063;22;20899;-86
2023/12/29 07:23:08;;;;;;;17.53;2.47;;;;;;;;;;6305856;22;20562;-85
2023/12/29 07:25:36;;;;;;;21.80;2.97;;;;;;;;;;6305930;22;20624;-86
2023/12/29 07:28:03;;;;;;;15.20;2.50;;;;;;;;;;6305784;22;20169;-85
2023/12/29 07:30:30;;;;;;;20.53;2.70;;;;;;;;;;6306385;22;20327;-85
2023/12/29 07:32:57;;;;;;;17.53;2.57;;;;;;;;;;6305474;22;20166;-86
2023/12/29 07:35:25;;;;;;;17.37;2.40;;;;;;;;;;6305640;22;20243;-85
2023/12/29 07:37:53;;;;;;;23.50;3.10;;;;;;;;;;6305793;22;20172;-85
2023/12/29 07:40:21;;;;;;;23.83;2.97;;;;;;;;;;6305520;22;20170;-85
2023/12/29 07:42:50;;;;;;;20.30;2.90;;;;;;;;;;6305749;22;20694;-86
2023/12/29 07:45:17;;;;;;;16.53;2.63;;;;;;;;;;6305229;22;20162;-85
2023/12/29 07:47:44;;;;;;;20.90;3.17;;;;;;;;;;6305076;22;20664;-86
2023/12/29 07:50:12;;;;;;;21.83;2.77;;;;;;;;;;6305684;22;20252;-86
2023/12/29 07:52:39;;;;;;;20.20;3.27;;;;;;;;;;6305568;22;20612;-85
2023/12/29 07:55:08;;;;;;;14.50;2.23;;;;;;;;;;6305961;22;20166;-85
2023/12/29 07:57:35;;;;;;;19.13;3.37;;;;;;;;;;6304446;22;20215;-85
2023/12/29 08:00:06;;;;;;;19.60;3.07;;;;;;;;;;6305969;22;20474;-86
2023/12/29 08:02:32;;;;;;;16.37;2.50;;;;;;;;;;6305182;22;20170;-85
2023/12/29 08:04:59;;;;;;;13.60;2.70;;;;;;;;;;6306149;22;20505;-85
2023/12/29 08:07:34;;;;;;;18.03;2.70;;;;;;;;;;6305651;22;20593;-85
2023/12/29 08:10:04;;;;;;;14.90;2.57;;;;;;;;;;6306930;22;20253;-85
2023/12/29 08:12:34;;;;;;;16.90;2.67;;;;;;;;;;6307109;22;20220;-85
2023/12/29 08:15:01;;;;;;;17.67;2.77;;;;;;;;;;6306897;22;20673;-86
2023/12/29 08:17:40;;;;;;;17.13;2.60;;;;;;;;;;6308566;22;20170;-93
2023/12/29 09:01:04;;;;;;;17.80;2.20;;;;;;;;;;6132126;23;20173;-89
2023/12/29 09:03:31;;;;;;;16.90;3.00;;;;;;;;;;6153476;23;20220;-86
2023/12/29 09:06:01;;;;;;;18.40;2.53;;;;;;;;;;6154048;23;20180;-88
2023/12/29 09:08:28;;;;;;;11.17;2.30;;;;;;;;;;6153674;23;20169;-90
2023/12/29 09:10:55;;;;;;;16.03;2.30;;;;;;;;;;6153689;23;20197;-88
2023/12/29 09:13:40;;;;;;;16.50;2.27;;;;;;;;;;6154165;23;20169;-90
2023/12/29 09:19:16;;;;;;;14.23;3.20;;;;;;;;;;6096543;23;20318;-90
2023/12/29 09:21:43;;;;;;;9.67;1.83;;;;;;;;;;6101855;23;20167;-88
2023/12/29 09:24:11;;;;;;;14.07;2.63;;;;;;;;;;6095128;23;20174;-88
2023/12/29 09:26:38;;;;;;;16.60;1.87;;;;;;;;;;6094818;23;20170;-88
2023/12/29 09:29:17;;;;;;;11.40;2.17;;;;;;;;;;6095304;23;20171;-89
2023/12/29 09:31:47;;;;;;;13.07;1.80;;;;;;;;;;6094078;23;20198;-91
2023/12/29 09:34:27;;;;;;;11.33;1.57;;;;;;;;;;6095078;23;20171;-89
2023/12/29 09:37:14;;;;;;;13.63;2.40;;;;;;;;;;6112068;23;20315;-90
2023/12/29 09:39:41;;;;;;;19.87;3.80;;;;;;;;;;6178392;23;20849;-92
2023/12/29 09:42:11;;;;;;;9.70;1.90;;;;;;;;;;6183859;23;20171;-91
2023/12/29 09:47:43;;;;;;;13.40;2.47;;;;;;;;;;6167154;23;20172;-89
2023/12/29 09:50:38;;;;;;;11.87;2.17;;;;;;;;;;6244408;22;20898;-88
2023/12/29 09:53:13;;;;;;;8.23;1.60;;;;;;;;;;6275670;22;20163;-87
2023/12/29 09:55:42;;;;;;;14.83;2.23;;;;;;;;;;6276176;22;20170;-88
2023/12/29 09:58:26;;;;;;;9.57;1.90;;;;;;;;;;6280409;22;20201;-88
2023/12/29 10:01:03;;;;;;;17.23;2.60;;;;;;;;;;6306408;22;20166;-88
2023/12/29 10:03:39;;;;;;;12.33;2.20;;;;;;;;;;6306674;22;20184;-90
2023/12/29 10:06:12;;;;;;;12.50;2.43;;;;;;;;;;6307384;22;20162;-89
2023/12/29 10:09:22;;;;;;;12.73;2.03;;;;;;;;;;6306651;22;20638;-89
2023/12/29 10:12:07;;;;;;;12.30;2.43;;;;;;;;;;6306944;22;20543;-87
2023/12/29 10:14:42;;;;;;;13.13;2.20;;;;;;;;;;6306339;22;20177;-88
2023/12/29 10:17:33;;;;;;;13.20;2.57;;;;;;;;;;6306130;22;20162;-89
2023/12/29 10:20:24;;;;;;;15.83;2.90;;;;;;;;;;6182075;23;20169;-89
2023/12/29 10:22:55;;;;;;;8.60;2.10;;;;;;;;;;6182238;23;20559;-88
2023/12/29 10:25:37;;;;;;;9.47;1.90;;;;;;;;;;6181440;23;20171;-90
2023/12/29 10:30:51;;;;;;;12.17;2.47;;;;;;;;;;6177859;23;20199;-88
2023/12/29 10:33:24;;;;;;;15.40;2.90;;;;;;;;;;6182028;23;21513;-89
2023/12/29 10:41:50;;;;;;;11.17;2.43;;;;;;;;;;6181120;23;20173;-91
2023/12/29 10:44:19;;;;;;;13.63;4.80;;;;;;;;;;6181421;23;20245;-85
2023/12/29 10:46:46;;;;;;;11.30;3.20;;;;;;;;;;6182515;23;20716;-88
2023/12/29 10:49:26;;;;;;;13.37;2.80;;;;;;;;;;6182543;23;20168;-89
2023/12/29 10:51:56;;;;;;;11.13;2.87;;;;;;;;;;6182052;23;20196;-87
2023/12/29 10:54:40;;;;;;;15.67;2.23;;;;;;;;;;6182146;23;20176;-88
2023/12/29 10:57:14;;;;;;;13.80;3.10;;;;;;;;;;6254793;22;20169;-89
2023/12/29 10:59:56;;;;;;;12.73;2.70;;;;;;;;;;6306937;22;20259;-88
2023/12/29 11:05:19;;;;;;;16.23;3.37;;;;;;;;;;6303428;22;20249;-86
2023/12/29 11:07:46;;;;;;;14.47;3.00;;;;;;;;;;6306987;22;20165;-89
2023/12/29 11:10:29;;;;;;;10.27;2.43;;;;;;;;;;6306428;22;20638;-88
2023/12/29 11:12:56;;;;;;;12.93;2.50;;;;;;;;;;6306524;22;20166;-87
2023/12/29 11:15:45;;;;;;;12.97;2.70;;;;;;;;;;6307103;22;20613;-88
2023/12/29 11:18:31;;;;;;;15.43;3.43;;;;;;;;;;6306940;22;20248;-89
2023/12/29 11:21:09;;;;;;;12.40;2.83;;;;;;;;;;6305890;22;20172;-89
2023/12/29 11:23:48;;;;;;;;;;;;;;;;;;;;;
2023/12/29 11:26:18;;;;;;;17.47;2.63;;;;;;;;;;6307850;22;20172;-89
2023/12/29 11:29:07;;;;;;;15.87;2.97;;;;;;;;;;6308090;22;20612;-88
2023/12/29 11:31:49;;;;;;;11.40;2.33;;;;;;;;;;6308421;22;20574;-89
2023/12/29 11:34:25;;;;;;;10.93;1.97;;;;;;;;;;6307580;22;20232;-87
2023/12/29 11:36:59;;;;;;;9.40;2.40;;;;;;;;;;6307656;22;20207;-89
2023/12/29 11:39:39;;;;;;;17.47;2.57;;;;;;;;;;6307802;22;20166;-87
2023/12/29 11:42:14;;;;;;;12.87;2.10;;;;;;;;;;6307695;22;20165;-88
2023/12/29 11:47:38;;;;;;;13.73;2.40;;;;;;;;;;6294246;22;20213;-86
2023/12/29 11:50:10;;;;;;;15.67;2.90;;;;;;;;;;6308803;22;20166;-90
2023/12/29 11:52:45;;;;;;;11.20;2.50;;;;;;;;;;6310265;22;20201;-89
2023/12/29 11:55:14;;;;;;;11.17;2.37;;;;;;;;;;6309454;22;20223;-88
2023/12/29 11:57:41;;;;;;;10.27;2.50;;;;;;;;;;6309215;22;20508;-88
2023/12/29 12:00:09;;;;;;;9.60;2.17;;;;;;;;;;6308790;22;20553;-88
2023/12/29 12:02:49;;;;;;;12.57;2.17;;;;;;;;;;6308901;22;20168;-87
2023/12/29 12:05:41;;;;;;;9.50;2.10;;;;;;;;;;6306880;22;20219;-86
2023/12/29 12:08:08;;;;;;;8.67;2.10;;;;;;;;;;6306932;22;20196;-85
2023/12/29 12:10:38;;;;;;;14.33;2.77;;;;;;;;;;6308380;22;20233;-85
2023/12/29 12:13:05;;;;;;;10.95;2.83;;;;;;;;;;6308083;22;20216;-87
2023/12/29 12:15:34;;;;;;;11.80;2.73;;;;;;;;;;6307386;22;20168;-85
2023/12/29 12:18:09;;;;;;;8.87;2.80;;;;;;;;;;6307286;22;20528;-84
2023/12/29 12:20:36;;;;;;;11.40;2.67;;;;;;;;;;6307844;22;20168;-86
2023/12/29 12:23:05;;;;;;;10.53;2.53;;;;;;;;;;6308167;22;20220;-88
2023/12/29 12:25:37;;;;;;;11.20;2.30;;;;;;;;;;6308663;22;20162;-86
2023/12/29 12:28:07;;;;;;;9.10;2.03;;;;;;;;;;6307260;22;20185;-86
2023/12/29 12:30:35;;;;;;;10.30;1.83;;;;;;;;;;6307149;22;20245;-87
2023/12/29 12:33:06;;;;;;;5.50;1.57;;;;;;;;;;6307686;22;20162;-88
2023/12/29 12:35:33;;;;;;;8.73;1.50;;;;;;;;;;6307985;22;20162;-87
2023/12/29 12:38:10;;;;;;;8.10;1.57;;;;;;;;;;6307902;22;20554;-86
2023/12/29 12:40:38;;;;;;;12.03;1.97;;;;;;;;;;6307784;22;20162;-87
2023/12/29 12:43:06;;;;;;;8.73;1.70;;;;;;;;;;6308485;22;20169;-87
2023/12/29 12:45:35;;;;;;;8.60;2.00;;;;;;;;;;6308916;22;20237;-86
2023/12/29 12:48:18;;;;;;;7.80;1.37;;;;;;;;;;6308894;22;20220;-89
2023/12/29 12:50:47;;;;;;;11.93;1.97;;;;;;;;;;6306874;22;20190;-88
2023/12/29 12:53:20;;;;;;;12.93;1.90;;;;;;;;;;6308689;22;20216;-88
2023/12/29 12:55:49;;;;;;;10.80;1.57;;;;;;;;;;6308146;22;20173;-88
2023/12/29 12:58:17;;;;;;;11.60;1.90;;;;;;;;;;6309819;22;20198;-86
2023/12/29 13:00:44;;;;;;;13.17;2.57;;;;;;;;;;6310366;22;20166;-86
2023/12/29 13:03:11;;;;;;;12.17;2.20;;;;;;;;;;6309352;22;20166;-89
2023/12/29 13:05:39;;;;;;;12.50;2.13;;;;;;;;;;6308925;22;20165;-91
2023/12/29 13:08:15;;;;;;;8.93;1.70;;;;;;;;;;6308995;22;20166;-88
2023/12/29 13:10:43;;;;;;;7.37;1.93;;;;;;;;;;6308600;22;20223;-89
2023/12/29 13:13:12;;;;;;;11.30;2.57;;;;;;;;;;6309341;22;20193;-91
2023/12/29 13:15:46;;;;;;;8.73;1.80;;;;;;;;;;6308274;22;20172;-91
2023/12/29 13:18:16;;;;;;;12.37;2.00;;;;;;;;;;6308947;22;20188;-89
2023/12/29 13:20:49;;;;;;;10.50;1.90;;;;;;;;;;6308585;22;20173;-89
2023/12/29 13:23:18;;;;;;;10.37;1.70;;;;;;;;;;6307852;22;20162;-89
2023/12/29 13:25:48;;;;;;;7.80;1.73;;;;;;;;;;6306843;22;20166;-89
2023/12/29 13:28:15;;;;;;;10.10;2.00;;;;;;;;;;6307799;22;20162;-91
2023/12/29 13:31:05;;;;;;;9.17;2.20;;;;;;;;;;6300191;22;20162;-91
2023/12/29 13:33:48;;;;;;;9.73;2.27;;;;;;;;;;6307323;22;20168;-90
2023/12/29 13:36:35;;;;;;;11.37;2.23;;;;;;;;;;6307371;22;20162;-91
2023/12/29 13:39:09;;;;;;;8.53;2.27;;;;;;;;;;6309587;22;20628;-91
2023/12/29 13:44:40;;;;;;;14.07;2.67;;;;;;;;;;6281043;22;20252;-94
2023/12/29 13:47:25;;;;;;;12.93;2.30;;;;;;;;;;6307724;22;20413;-89
2023/12/29 13:50:06;;;;;;;10.87;2.27;;;;;;;;;;6285508;22;20166;-89
2023/12/29 13:52:34;;;;;;;13.47;2.37;;;;;;;;;;6307959;22;20194;-89
2023/12/29 13:55:14;;;;;;;9.17;1.70;;;;;;;;;;6308103;22;20223;-88
2023/12/29 13:57:41;;;;;;;11.40;2.13;;;;;;;;;;6307804;22;20157;-88
2023/12/29 14:00:25;;;;;;;8.43;2.00;;;;;;;;;;6305932;22;20194;-86
2023/12/29 14:03:18;;;;;;;7.80;1.70;;;;;;;;;;6308366;22;20170;-89
2023/12/29 14:05:50;;;;;;;7.33;1.80;;;;;;;;;;6308494;22;20686;-88
2023/12/29 14:08:20;;;;;;;11.80;2.30;;;;;;;;;;6308216;22;20193;-88
2023/12/29 14:10:50;;;;;;;10.33;2.50;;;;;;;;;;6308386;22;20166;-87
2023/12/29 14:13:23;;;;;;;9.27;2.70;;;;;;;;;;6306807;22;20682;-88
2023/12/29 14:16:00;;;;;;;15.53;2.33;;;;;;;;;;6306345;22;20162;-88
2023/12/29 14:18:36;;;;;;;9.53;2.27;;;;;;;;;;6304450;22;20197;-86
2023/12/29 14:21:03;;;;;;;12.13;2.30;;;;;;;;;;6305159;22;20165;-86
2023/12/29 14:23:30;;;;;;;8.97;1.50;;;;;;;;;;6305761;22;20174;-85
2023/12/29 14:26:05;;;;;;;8.63;2.47;;;;;;;;;;6303558;22;20166;-86
2023/12/29 14:28:32;;;;;;;13.93;2.37;;;;;;;;;;6304341;22;20201;-85
2023/12/29 14:31:03;;;;;;;15.30;2.93;;;;;;;;;;6305109;22;20578;-83
2023/12/29 14:33:30;;;;;;;10.77;2.30;;;;;;;;;;6305300;22;20232;-83
2023/12/29 14:35:57;;;;;;;6.83;2.17;;;;;;;;;;6305224;22;20189;-83
2023/12/29 14:38:25;;;;;;;7.30;1.80;;;;;;;;;;6305535;22;20564;-83
2023/12/29 14:40:52;;;;;;;3.80;1.30;;;;;;;;;;6304815;22;20166;-84
2023/12/29 14:43:21;;;;;;;4.17;1.50;;;;;;;;;;6304225;22;20166;-85
2023/12/29 14:45:48;;;;;;;3.07;1.27;;;;;;;;;;6305171;22;20166;-84
2023/12/29 14:48:15;;;;;;;4.53;1.50;;;;;;;;;;6304810;22;20165;-83
2023/12/29 14:50:45;;;;;;;6.03;1.70;;;;;;;;;;6304991;22;20648;-83
2023/12/29 14:53:12;;;;;;;6.80;2.00;;;;;;;;;;6305074;22;20205;-83
2023/12/29 14:55:40;;;;;;;4.10;1.63;;;;;;;;;;6305118;22;20636;-82
2023/12/29 14:58:07;;;;;;;7.27;2.10;;;;;;;;;;6303831;22;20173;-82
2023/12/29 15:00:35;;;;;;;5.90;1.50;;;;;;;;;;6305291;22;20199;-83
2023/12/29 15:03:03;;;;;;;5.43;1.33;;;;;;;;;;6305048;22;20193;-83
2023/12/29 15:05:30;;;;;;;4.70;2.10;;;;;;;;;;6304517;22;20201;-83
2023/12/29 15:07:57;;;;;;;3.83;1.50;;;;;;;;;;6304924;22;20170;-82
2023/12/29 15:10:25;;;;;;;4.33;1.60;;;;;;;;;;6305192;22;20711;-82
2023/12/29 15:12:52;;;;;;;6.47;1.60;;;;;;;;;;6304530;22;20201;-81
2023/12/29 15:15:20;;;;;;;5.30;1.90;;;;;;;;;;6304497;22;20165;-82
2023/12/29 15:17:49;;;;;;;4.73;1.47;;;;;;;;;;6304069;22;20177;-82
2023/12/29 15:20:16;;;;;;;8.57;2.40;;;;;;;;;;6307394;22;20188;-81
2023/12/29 15:22:43;;;;;;;8.67;3.07;;;;;;;;;;6308476;22;20197;-82
2023/12/29 15:25:11;;;;;;;9.00;3.63;;;;;;;;;;6308447;22;20639;-81
2023/12/29 15:27:38;;;;;;;16.57;8.80;;;;;;;;;;6308202;22;20197;-80
2023/12/29 15:30:06;;;;;;;16.80;10.43;;;;;;;;;;6307872;22;20170;-81
2023/12/29 15:32:33;;;;;;;10.77;6.80;;;;;;;;;;6307133;22;20189;-81
2023/12/29 15:35:02;;;;;;;12.23;6.20;;;;;;;;;;6308356;22;20197;-82
2023/12/29 15:37:29;;;;;;;12.83;7.00;;;;;;;;;;6308045;22;20168;-82
2023/12/29 15:39:56;;;;;;;14.27;7.90;;;;;;;;;;6308143;22;20173;-81
2023/12/29 15:42:24;;;;;;;13.10;6.90;;;;;;;;;;6307793;22;20173;-82
2023/12/29 15:44:51;;;;;;;9.70;4.70;;;;;;;;;;6304325;22;20879;-81
2023/12/29 15:47:18;;;;;;;7.73;3.40;;;;;;;;;;6307124;22;20279;-80
2023/12/29 15:49:46;;;;;;;7.07;3.00;;;;;;;;;;6306430;22;20178;-81
2023/12/29 15:52:14;;;;;;;8.67;2.00;;;;;;;;;;6307853;22;20656;-81
2023/12/29 15:54:41;;;;;;;10.20;2.23;;;;;;;;;;6307980;22;20551;-83